Time;durP1;ratioP1;P1;durP2;ratioP2;P2;SDS_P1;SDS_P2;PMS_P1;PMS_P2;Temp;Humidity;BMP_temperature;BMP_pressure;BME280_temperature;BME280_humidity;BME280_pressure;Samples;Min_cycle;Max_cycle;Signal;HPM_P1;HPM_P2
2022/09/11 18:14:00;;;;;;;31.30;27.23;;;17.50;1.00;;;;;;6069519;22;4179736;-65
2022/09/11 18:16:33;;;;;;;30.70;24.30;;;17.40;1.00;;;;;;6249494;23;20214;-65
2022/09/11 18:19:03;;;;;;;37.23;26.37;;;17.30;1.00;;;;;;6248883;22;20422;-65
2022/09/11 18:21:32;;;;;;;29.67;25.03;;;17.20;1.00;;;;;;6248493;23;20462;-66
2022/09/11 18:36:24;;;;;;;33.93;26.53;;;16.60;99.90;;;;;;6308568;22;20486;-66
2022/09/11 18:38:54;;;;;;;39.50;29.13;;;16.40;1.00;;;;;;6311140;22;20416;-68
2022/09/11 18:41:24;;;;;;;35.17;27.07;;;16.40;99.90;;;;;;6310645;22;20514;-65
2022/09/11 18:43:56;;;;;;;35.60;27.60;;;16.50;1.00;;;;;;6310328;22;20479;-65
2022/09/11 18:46:40;;;;;;;30.60;24.47;;;16.40;1.00;;;;;;6310260;22;20515;-67
2022/09/11 18:49:08;;;;;;;31.27;25.30;;;16.40;99.90;;;;;;6307756;22;20771;-65
2022/09/11 18:51:40;;;;;;;35.37;25.20;;;16.40;1.00;;;;;;6310771;22;20510;-65
2022/09/11 18:54:14;;;;;;;32.77;24.47;;;16.40;1.00;;;;;;6310147;22;20422;-66
2022/09/11 18:56:45;;;;;;;29.37;26.27;;;16.30;1.00;;;;;;6310657;22;20398;-66
2022/09/11 18:59:18;;;;;;;34.53;26.00;;;16.30;1.00;;;;;;6310853;22;20423;-66
2022/09/11 19:01:46;;;;;;;34.17;27.30;;;16.30;36.80;;;;;;6310865;22;20489;-66
2022/09/11 19:04:15;;;;;;;30.97;24.87;;;16.20;99.90;;;;;;6310938;22;20450;-65
2022/09/11 19:06:45;;;;;;;32.90;27.20;;;16.00;1.00;;;;;;6310720;22;20412;-66
2022/09/11 19:09:16;;;;;;;32.70;26.20;;;16.00;99.90;;;;;;6309806;22;20416;-66
2022/09/11 19:11:47;;;;;;;34.63;26.97;;;16.00;1.00;;;;;;6309912;22;20862;-66
2022/09/11 19:14:19;;;;;;;30.87;25.47;;;15.90;99.90;;;;;;6308826;22;20395;-66
2022/09/11 19:16:57;;;;;;;30.87;24.73;;;15.90;1.00;;;;;;6309211;22;20489;-66
2022/09/11 19:19:30;;;;;;;29.10;25.60;;;15.90;99.90;;;;;;6309277;22;20720;-66
2022/09/11 19:22:01;;;;;;;34.77;26.87;;;15.80;25.80;;;;;;6310159;22;20765;-68
2022/09/11 19:24:28;;;;;;;33.70;27.37;;;15.70;91.90;;;;;;6309101;22;20480;-66
2022/09/11 19:26:58;;;;;;;34.93;26.43;;;15.60;99.90;;;;;;6307872;22;20421;-66
2022/09/11 19:29:29;;;;;;;33.43;25.57;;;15.60;12.30;;;;;;6310979;22;20460;-68
2022/09/11 19:31:59;;;;;;;33.23;23.73;;;15.60;1.00;;;;;;6309184;22;21139;-67
2022/09/11 19:34:27;;;;;;;32.10;26.40;;;15.50;99.90;;;;;;6309173;22;20470;-68
2022/09/11 19:37:02;;;;;;;29.50;24.10;;;15.50;40.10;;;;;;6307978;22;20410;-68
2022/09/11 19:39:37;;;;;;;29.60;23.70;;;15.40;99.90;;;;;;6308045;22;20444;-69
2022/09/11 19:42:10;;;;;;;32.43;25.90;;;15.30;99.90;;;;;;6310047;22;20497;-66
2022/09/11 19:44:46;;;;;;;35.13;29.63;;;15.30;1.00;;;;;;6309070;22;20480;-66
2022/09/11 19:47:13;;;;;;;33.23;26.70;;;15.20;1.00;;;;;;6310352;22;20438;-66
2022/09/11 19:49:45;;;;;;;31.20;25.30;;;15.20;99.90;;;;;;6309787;22;20485;-66
2022/09/11 19:52:23;;;;;;;34.47;28.40;;;15.00;1.00;;;;;;6310322;22;20730;-68
2022/09/11 19:54:57;;;;;;;35.30;28.00;;;15.00;1.00;;;;;;6309636;22;20785;-66
2022/09/11 19:57:27;;;;;;;34.40;24.47;;;14.90;1.00;;;;;;6308204;22;20424;-66
2022/09/11 20:00:01;;;;;;;34.20;24.73;;;14.90;99.90;;;;;;6309291;22;20481;-66
2022/09/11 20:02:31;;;;;;;31.60;23.50;;;14.90;99.90;;;;;;6310013;22;20420;-66
2022/09/11 20:04:59;;;;;;;30.20;24.27;;;14.90;1.00;;;;;;6308982;22;20548;-66
2022/09/11 20:07:27;;;;;;;36.20;26.67;;;14.90;1.00;;;;;;6309935;22;20745;-66
2022/09/11 20:09:56;;;;;;;31.77;24.20;;;14.90;1.00;;;;;;6309446;22;20423;-66
2022/09/11 20:12:35;;;;;;;36.60;26.10;;;14.80;1.00;;;;;;6309580;22;20861;-66
2022/09/11 20:15:05;;;;;;;34.33;25.40;;;14.80;1.00;;;;;;6308955;22;20415;-66
2022/09/11 20:17:35;;;;;;;32.97;24.77;;;14.70;1.00;;;;;;6309889;22;20418;-68
2022/09/11 20:20:05;;;;;;;31.47;24.30;;;14.60;1.00;;;;;;6308190;22;20454;-68
2022/09/11 20:22:33;;;;;;;30.77;24.73;;;14.60;23.60;;;;;;6308988;22;20390;-66
2022/09/11 20:25:02;;;;;;;29.17;24.40;;;14.50;47.30;;;;;;6308903;22;20419;-66
2022/09/11 20:27:29;;;;;;;29.60;24.60;;;14.50;1.00;;;;;;6309437;22;20399;-67
2022/09/11 20:29:56;;;;;;;31.77;25.47;;;14.50;1.00;;;;;;6307818;22;20515;-69
2022/09/11 20:32:28;;;;;;;35.80;25.80;;;14.40;1.00;;;;;;6307900;22;20703;-66
2022/09/11 20:34:58;;;;;;;32.80;24.90;;;14.40;1.00;;;;;;6308927;22;20835;-66
2022/09/11 20:37:26;;;;;;;33.17;25.00;;;14.30;1.00;;;;;;6309704;22;20878;-66
2022/09/11 20:39:53;;;;;;;31.10;24.50;;;14.30;1.00;;;;;;6308475;22;20489;-66
2022/09/11 20:42:24;;;;;;;38.10;23.53;;;14.30;1.00;;;;;;6309555;22;20523;-66
2022/09/11 20:44:51;;;;;;;33.50;25.40;;;14.20;1.00;;;;;;6308645;22;20547;-66
2022/09/11 20:47:26;;;;;;;29.13;23.20;;;14.10;99.90;;;;;;6309206;22;20387;-67
2022/09/11 20:49:55;;;;;;;36.30;25.70;;;14.00;99.90;;;;;;6307925;22;20416;-66
2022/09/11 20:52:26;;;;;;;29.67;23.33;;;14.00;99.90;;;;;;6308186;22;20387;-66
2022/09/11 20:54:53;;;;;;;32.50;23.67;;;13.90;99.90;;;;;;6308436;22;20426;-67
2022/09/11 20:57:25;;;;;;;32.67;23.30;;;13.80;99.90;;;;;;6308263;22;20390;-66
2022/09/11 20:59:52;;;;;;;29.87;23.70;;;13.80;99.90;;;;;;6307987;22;20500;-67
2022/09/11 21:02:22;;;;;;;28.20;23.53;;;13.80;99.90;;;;;;6306924;22;20391;-67
2022/09/11 21:04:50;;;;;;;34.00;24.67;;;13.80;99.90;;;;;;6306526;22;20415;-66
2022/09/11 21:07:19;;;;;;;30.63;23.67;;;13.80;99.90;;;;;;6309414;22;20395;-67
2022/09/11 21:09:46;;;;;;;30.33;22.93;;;13.80;99.90;;;;;;6308556;22;20853;-67
2022/09/11 21:12:13;;;;;;;29.33;23.00;;;13.70;99.90;;;;;;6308928;22;20395;-67
2022/09/11 21:14:44;;;;;;;28.60;22.70;;;13.70;99.90;;;;;;6308886;22;20416;-66
2022/09/11 21:17:11;;;;;;;29.47;23.67;;;13.80;99.90;;;;;;6309291;22;20419;-66
2022/09/11 21:19:39;;;;;;;28.57;22.17;;;13.70;99.90;;;;;;6308736;22;20495;-67
2022/09/11 21:22:10;;;;;;;29.57;23.23;;;13.70;91.50;;;;;;6307764;22;20510;-66
2022/09/11 21:24:41;;;;;;;36.33;24.20;;;13.60;63.10;;;;;;6308213;22;20425;-66
2022/09/11 21:27:11;;;;;;;33.80;23.17;;;13.60;1.00;;;;;;6308305;22;20419;-66
2022/09/11 21:29:39;;;;;;;28.20;23.77;;;13.60;1.00;;;;;;6308893;22;20454;-66
2022/09/11 21:32:10;;;;;;;30.10;23.30;;;13.60;1.00;;;;;;6309880;22;20416;-66
2022/09/11 21:34:37;;;;;;;26.90;22.50;;;13.60;1.00;;;;;;6310602;22;20759;-67
2022/09/11 21:37:04;;;;;;;29.30;23.27;;;13.60;1.00;;;;;;6310985;22;20436;-67
2022/09/11 21:39:34;;;;;;;29.87;23.97;;;13.60;1.00;;;;;;6310920;22;20391;-67
2022/09/11 21:42:01;;;;;;;29.00;23.00;;;13.60;99.90;;;;;;6311252;22;20883;-67
2022/09/11 21:44:29;;;;;;;29.20;22.70;;;13.50;99.90;;;;;;6310602;22;20416;-67
2022/09/11 21:46:57;;;;;;;31.23;24.40;;;13.50;99.90;;;;;;6311111;22;20834;-67
2022/09/11 21:49:25;;;;;;;26.90;21.67;;;13.40;99.90;;;;;;6310580;22;20394;-67
2022/09/11 21:51:53;;;;;;;30.20;22.77;;;13.40;99.90;;;;;;6310197;22;20543;-67
2022/09/11 21:54:22;;;;;;;29.13;21.23;;;13.40;99.90;;;;;;6310831;22;20523;-67
2022/09/11 21:56:52;;;;;;;30.80;25.13;;;13.40;1.00;;;;;;6309161;22;20485;-67
2022/09/11 21:59:19;;;;;;;31.00;23.37;;;13.30;22.30;;;;;;6311147;22;20486;-67
2022/09/11 22:01:46;;;;;;;27.90;21.87;;;13.30;92.50;;;;;;6310405;22;20452;-66
2022/09/11 22:04:14;;;;;;;28.70;23.80;;;13.20;99.90;;;;;;6310733;22;20497;-67
2022/09/11 22:06:44;;;;;;;31.23;23.30;;;13.10;99.90;;;;;;6310136;22;20547;-67
2022/09/11 22:09:11;;;;;;;28.90;22.93;;;13.10;99.90;;;;;;6311540;22;20455;-67
2022/09/11 22:11:38;;;;;;;28.57;23.27;;;13.00;99.90;;;;;;6309833;22;20855;-67
2022/09/11 22:14:06;;;;;;;30.23;23.50;;;13.10;99.90;;;;;;6311200;22;20418;-67
2022/09/11 22:16:33;;;;;;;41.00;24.63;;;13.10;99.90;;;;;;6310321;22;20474;-67
2022/09/11 22:19:02;;;;;;;31.10;24.17;;;13.10;99.90;;;;;;6310640;22;20916;-67
2022/09/11 22:21:31;;;;;;;31.33;22.93;;;12.90;99.90;;;;;;6310142;22;20434;-67
2022/09/11 22:24:01;;;;;;;27.53;22.10;;;13.00;99.90;;;;;;6310572;22;20390;-66
2022/09/11 22:26:29;;;;;;;32.90;25.10;;;13.00;99.90;;;;;;6310362;22;20448;-67
2022/09/11 22:28:58;;;;;;;32.33;22.73;;;12.90;99.90;;;;;;6309837;22;20430;-67
2022/09/11 22:31:27;;;;;;;27.77;21.70;;;12.80;99.90;;;;;;6310680;22;20507;-67
2022/09/11 22:33:56;;;;;;;29.20;23.40;;;12.80;99.90;;;;;;6310457;22;20898;-67
2022/09/11 22:36:25;;;;;;;28.47;21.80;;;12.70;99.90;;;;;;6310322;22;20422;-67
2022/09/11 22:38:55;;;;;;;32.90;23.50;;;12.70;99.90;;;;;;6310147;22;20519;-67
2022/09/11 22:41:23;;;;;;;30.30;23.50;;;12.70;99.90;;;;;;6310962;22;20477;-66
2022/09/11 22:43:51;;;;;;;30.97;22.47;;;12.70;99.90;;;;;;6309148;22;20387;-67
2022/09/11 22:46:22;;;;;;;28.90;21.93;;;12.70;99.90;;;;;;6310205;22;20912;-67
2022/09/11 22:48:50;;;;;;;30.07;22.77;;;12.70;99.90;;;;;;6310464;22;20420;-67
2022/09/11 22:51:17;;;;;;;31.43;22.90;;;12.70;99.90;;;;;;6310343;22;20489;-67
2022/09/11 22:53:46;;;;;;;26.90;22.67;;;12.70;99.90;;;;;;6310387;22;20421;-67
2022/09/11 22:56:13;;;;;;;25.60;21.57;;;12.70;99.90;;;;;;6310503;22;20416;-67
2022/09/11 22:58:42;;;;;;;30.73;22.40;;;12.60;99.90;;;;;;6310257;22;20435;-67
2022/09/11 23:01:13;;;;;;;26.70;21.07;;;12.50;99.90;;;;;;6310351;22;20884;-67
2022/09/11 23:03:41;;;;;;;29.60;21.37;;;12.50;99.90;;;;;;6309794;22;20853;-67
2022/09/11 23:08:56;;;;;;;29.43;23.67;;;12.40;99.90;;;;;;6309275;22;20406;-67
2022/09/11 23:11:23;;;;;;;26.20;21.60;;;12.40;99.90;;;;;;6309335;22;20433;-67
2022/09/11 23:13:53;;;;;;;25.23;20.60;;;12.30;99.90;;;;;;6309364;22;20391;-67
2022/09/11 23:16:26;;;;;;;24.17;21.03;;;12.30;99.90;;;;;;6310053;22;20523;-67
2022/09/11 23:18:54;;;;;;;30.23;22.33;;;12.30;99.90;;;;;;6310147;22;20398;-67
2022/09/11 23:21:21;;;;;;;29.43;20.90;;;12.30;99.90;;;;;;6310091;22;20395;-66
2022/09/11 23:23:50;;;;;;;26.50;20.90;;;12.30;99.90;;;;;;6310176;22;20392;-67
2022/09/11 23:26:17;;;;;;;27.40;22.40;;;12.30;99.90;;;;;;6309867;22;20533;-66
2022/09/11 23:28:46;;;;;;;33.50;22.70;;;12.20;99.90;;;;;;6310052;22;20490;-67
2022/09/11 23:31:20;;;;;;;28.40;20.33;;;12.30;99.90;;;;;;6309631;22;20865;-66
2022/09/11 23:33:51;;;;;;;28.03;21.33;;;12.20;56.50;;;;;;6309929;22;20880;-67
2022/09/11 23:36:22;;;;;;;26.27;19.73;;;12.20;1.00;;;;;;6309402;22;20503;-66
2022/09/11 23:38:49;;;;;;;26.33;21.10;;;12.20;1.00;;;;;;6310256;22;20455;-67
2022/09/11 23:41:20;;;;;;;34.97;23.33;;;12.20;1.00;;;;;;6309273;22;20462;-67
2022/09/11 23:43:47;;;;;;;28.93;22.23;;;12.20;99.90;;;;;;6310370;22;20521;-67
2022/09/11 23:46:15;;;;;;;26.03;21.00;;;12.10;99.90;;;;;;6308644;22;20484;-67
2022/09/11 23:48:44;;;;;;;28.17;19.83;;;12.20;99.90;;;;;;6309744;22;20772;-67
2022/09/11 23:51:12;;;;;;;25.77;20.70;;;12.10;99.90;;;;;;6307780;22;20846;-66
2022/09/11 23:53:43;;;;;;;22.77;19.83;;;12.10;99.90;;;;;;6309995;22;20426;-67
2022/09/11 23:56:14;;;;;;;25.67;20.60;;;12.00;99.90;;;;;;6307862;22;20424;-67
2022/09/11 23:58:41;;;;;;;23.40;19.13;;;11.90;99.90;;;;;;6308899;22;20610;-67
